LIRF

Leonardo da Vinci–Fiumicino Airport

Rome, Italy
TAF LIRF 151100Z 1512/1618 20010KT 9999 SCT030 TEMPO 1513/1518 4000 TSRA BECMG 1518/1520 VRB05KT BECMG 1608/1510 26012KT
Issued Valid From Valid To
Aug-15 @ 11:00 UTC
(2 hours ago)
Aug-15 @ 12:00 UTC
(42 minutes ago)
Aug-16 @ 18:00 UTC
(-1 days ago)
Aug-15 @ 12:00 to Aug-15 @ 18:00
TAF LIRF 151100Z 1512/1618 20010KT 9999 SCT030
Wind Visibility Clouds
200° at 10 knots 10,000+ meters
  • Scattered at 3,000' AGL
Temporary Aug-15 @ 13:00 to Aug-15 @ 18:00
TEMPO 1513/1518 4000 TSRA
Visibility Conditions
4,007 meters
  • Thunderstorm
  • Rain
Becoming Aug-15 @ 18:00 to Aug-16 @ 08:00
BECMG 1518/1520 VRB05KT
Wind Visibility Clouds
Variable at 5 knots 10,000+ meters
  • Scattered at 3,000' AGL
Becoming Aug-16 @ 08:00 to Aug-16 @ 18:00
BECMG 1608/1510 26012KT
Wind Visibility Clouds
260° at 12 knots 10,000+ meters
  • Scattered at 3,000' AGL
TAF LIRF 151100Z 1512/1618 20010KT 9999 SCT030 TEMPO 1513/1518 4000 TSRA BECMG 1518/1520 VRB05KT BECMG 1608/1510 26012KT
Issued Aug-15 @ 11:00 UTC
(2 hours ago)
Valid From Aug-15 @ 12:00 UTC
(42 minutes ago)
Valid To Aug-16 @ 18:00 UTC
(-1 days ago)
Aug-15 @ 12:00 - Aug-15 @ 18:00
Wind Visibility
200° at 10 knots 10,000+ meters
Clouds
  • Scattered at 3,000' AGL
Temporary Aug-15 @ 13:00 - Aug-15 @ 18:00
Conditions
  • Thunderstorm
  • Rain
Becoming Aug-15 @ 18:00 - Aug-16 @ 08:00
Wind Visibility
Variable at 5 knots 10,000+ meters
Clouds
  • Scattered at 3,000' AGL
Becoming Aug-16 @ 08:00 - Aug-16 @ 18:00
Wind Visibility
260° at 12 knots 10,000+ meters
Clouds
  • Scattered at 3,000' AGL